createdAt,value
2023-08-29T00:04:52.462Z,97109.34
2023-08-29T00:09:57.724Z,97104.25
2023-08-29T00:15:05.119Z,97106.00
2023-08-29T00:20:11.644Z,97086.50
2023-08-29T00:25:17.526Z,97085.97
2023-08-29T00:30:21.807Z,97117.69
2023-08-29T00:35:26.415Z,97215.53
2023-08-29T00:40:32.734Z,97228.50
2023-08-29T00:45:38.871Z,97221.13
2023-08-29T00:50:43.582Z,97238.31
2023-08-29T00:55:50.966Z,97214.88
2023-08-29T01:00:55.357Z,97237.09
2023-08-29T01:05:59.845Z,97245.50
2023-08-29T01:11:10.764Z,97227.84
2023-08-29T01:16:20.555Z,97221.69
2023-08-29T01:21:33.357Z,97201.06
2023-08-29T01:26:38.971Z,97194.66
2023-08-29T01:31:43.546Z,97202.03
2023-08-29T01:36:48.933Z,97185.91
2023-08-29T01:41:54.436Z,97176.31
2023-08-29T01:46:58.603Z,97169.59
2023-08-29T01:52:02.937Z,97165.16
2023-08-29T01:57:10.396Z,97159.19
2023-08-29T02:02:16.304Z,97171.06
2023-08-29T02:07:20.813Z,97161.00
2023-08-29T02:12:26.316Z,97167.41
2023-08-29T02:17:31.502Z,97136.19
2023-08-29T02:22:35.758Z,97149.59
2023-08-29T02:27:41.002Z,97138.06
2023-08-29T02:32:46.926Z,97143.94
2023-08-29T02:37:52.145Z,97133.56
2023-08-29T02:42:57.793Z,97126.09
2023-08-29T02:48:02.116Z,97137.53
2023-08-29T02:53:07.775Z,97120.09
2023-08-29T02:58:14.566Z,97104.56
2023-08-29T03:03:19.148Z,97076.47
2023-08-29T03:08:23.310Z,97070.16
2023-08-29T03:13:29.326Z,97036.13
2023-08-29T03:18:34.054Z,97031.34
2023-08-29T03:23:38.598Z,97044.59
2023-08-29T03:28:45.101Z,97018.31
2023-08-29T03:33:49.857Z,97016.28
2023-08-29T03:38:55.309Z,97024.16
2023-08-29T03:44:01.565Z,97030.63
2023-08-29T03:49:07.376Z,97024.34
2023-08-29T03:54:11.254Z,97015.44
2023-08-29T03:59:16.588Z,97028.56
2023-08-29T04:04:20.715Z,97020.22
2023-08-29T04:09:24.724Z,97031.84
2023-08-29T04:14:29.975Z,97021.66
2023-08-29T04:19:34.765Z,97009.19
2023-08-29T04:24:38.957Z,97011.44
2023-08-29T04:29:44.446Z,97042.84
2023-08-29T04:34:48.611Z,97075.84
2023-08-29T04:39:52.787Z,97081.78
2023-08-29T04:44:58.284Z,97085.56
2023-08-29T04:50:02.418Z,97085.28
2023-08-29T04:55:08.147Z,97099.81
2023-08-29T05:00:15.967Z,97096.94
2023-08-29T05:05:20.833Z,97087.97
2023-08-29T05:10:26.109Z,97075.13
2023-08-29T05:15:34.040Z,97082.88
2023-08-29T05:20:39.315Z,97093.75
2023-08-29T05:25:43.758Z,97107.00
2023-08-29T05:30:49.216Z,97091.53
2023-08-29T05:35:53.510Z,97078.69
2023-08-29T05:40:57.894Z,97067.38
2023-08-29T05:46:04.380Z,97096.69
2023-08-29T05:51:08.486Z,97097.53
2023-08-29T05:56:12.553Z,97091.84
2023-08-29T06:01:18.057Z,97103.69
2023-08-29T06:06:22.641Z,97105.22
2023-08-29T06:11:27.385Z,97090.94
2023-08-29T06:16:32.985Z,97096.91
2023-08-29T06:21:37.490Z,97097.09
2023-08-29T06:26:41.797Z,97133.22
2023-08-29T06:31:47.077Z,97141.13
2023-08-29T06:36:51.141Z,97180.69
2023-08-29T06:41:55.234Z,97205.16
2023-08-29T06:47:01.256Z,97162.22
2023-08-29T06:52:06.080Z,97106.69
2023-08-29T06:57:10.726Z,97118.63
2023-08-29T07:02:16.004Z,97128.41
2023-08-29T07:07:21.450Z,97169.16
2023-08-29T07:12:25.340Z,97184.81
2023-08-29T07:17:30.867Z,97175.50
2023-08-29T07:22:35.488Z,97178.78
2023-08-29T07:27:39.702Z,97171.59
2023-08-29T07:32:45.838Z,97108.72
2023-08-29T07:37:49.807Z,97165.41
2023-08-29T07:42:53.729Z,97181.34
2023-08-29T07:47:59.198Z,97110.59
2023-08-29T07:53:03.867Z,97165.72
2023-08-29T07:58:08.079Z,97162.28
2023-08-29T08:03:13.702Z,97127.44
2023-08-29T08:08:18.005Z,97053.69
2023-08-29T08:13:22.251Z,97032.44
2023-08-29T08:18:27.931Z,97037.78
2023-08-29T08:23:32.232Z,97012.34
2023-08-29T08:28:37.323Z,97044.59
2023-08-29T08:33:43.009Z,97104.28
2023-08-29T08:38:47.012Z,97147.50
2023-08-29T08:43:51.011Z,97196.84
2023-08-29T08:48:56.369Z,97215.78
2023-08-29T08:54:00.942Z,97235.03
2023-08-29T08:59:05.858Z,97272.66
2023-08-29T09:04:11.284Z,97257.88
2023-08-29T09:09:20.457Z,97262.03
2023-08-29T09:14:26.099Z,97273.13
2023-08-29T09:19:34.417Z,97271.28
2023-08-29T09:24:39.094Z,97283.66
2023-08-29T09:29:43.343Z,97285.97
2023-08-29T09:34:48.955Z,97287.88
2023-08-29T09:39:55.086Z,97304.91
2023-08-29T09:44:59.233Z,97308.97
2023-08-29T09:50:05.283Z,97303.72
2023-08-29T09:55:10.821Z,97305.75
2023-08-29T10:00:16.355Z,97323.16
2023-08-29T10:05:26.405Z,97305.69
2023-08-29T10:10:30.934Z,97301.47
2023-08-29T10:15:38.803Z,97311.41
2023-08-29T10:20:45.602Z,97310.38
2023-08-29T10:25:50.819Z,97291.69
2023-08-29T10:30:56.763Z,97308.50
2023-08-29T10:36:05.007Z,97303.03
2023-08-29T10:41:10.821Z,97315.69
2023-08-29T10:46:16.279Z,97318.47
2023-08-29T10:51:26.206Z,97308.38
2023-08-29T10:56:41.941Z,97319.91
2023-08-29T11:01:45.822Z,97331.63
2023-08-29T11:06:56.538Z,97334.50
2023-08-29T11:12:10.648Z,97332.84
2023-08-29T11:17:14.637Z,97331.28
2023-08-29T11:22:23.954Z,97311.34
2023-08-29T11:27:30.003Z,97311.75
2023-08-29T11:32:34.592Z,97335.19
2023-08-29T11:37:40.806Z,97345.28
2023-08-29T11:43:19.875Z,97344.03
2023-08-29T11:48:09.808Z,97339.63
2023-08-29T11:53:22.530Z,97340.66
2023-08-29T11:58:29.417Z,97345.53
2023-08-29T12:03:37.064Z,97338.41
2023-08-29T12:08:44.345Z,97333.97
2023-08-29T12:14:00.540Z,97326.38
2023-08-29T12:19:08.233Z,97328.31
2023-08-29T12:24:15.291Z,97321.34
2023-08-29T12:29:19.615Z,97321.53
2023-08-29T12:34:24.020Z,97328.38
2023-08-29T12:39:29.781Z,97345.28
2023-08-29T12:44:34.060Z,97360.28
2023-08-29T12:49:38.439Z,97364.31
2023-08-29T12:54:44.242Z,97372.94
2023-08-29T12:59:48.727Z,97368.63
2023-08-29T13:04:52.976Z,97371.78
2023-08-29T13:09:58.270Z,97368.84
2023-08-29T13:15:02.158Z,97379.56
2023-08-29T13:20:08.338Z,97395.28
2023-08-29T13:25:13.999Z,97375.44
2023-08-29T13:30:18.498Z,97327.63
2023-08-29T13:35:22.498Z,97295.91
2023-08-29T13:40:27.844Z,97281.03
2023-08-29T13:45:31.932Z,97284.03
2023-08-29T13:50:35.818Z,97277.59
2023-08-29T13:55:41.268Z,97290.09
2023-08-29T14:00:45.174Z,97293.81
2023-08-29T14:05:49.422Z,97298.78
2023-08-29T14:10:59.145Z,97281.94
2023-08-29T14:16:04.996Z,97269.47
2023-08-29T14:21:10.400Z,97276.59
2023-08-29T14:26:15.738Z,97297.31
2023-08-29T14:31:23.960Z,97250.09
2023-08-29T14:36:27.952Z,97249.28
2023-08-29T14:41:33.560Z,97237.91
2023-08-29T14:46:37.906Z,97235.38
2023-08-29T14:51:41.773Z,97238.47
2023-08-29T14:56:47.051Z,97261.13
2023-08-29T15:01:51.028Z,97307.06
2023-08-29T15:06:56.169Z,97335.50
2023-08-29T15:12:01.518Z,97331.78
2023-08-29T15:17:06.266Z,97353.00
2023-08-29T15:22:10.611Z,97350.59
2023-08-29T15:27:15.945Z,97297.84
2023-08-29T15:32:20.490Z,97250.75
2023-08-29T15:37:24.643Z,97268.38
2023-08-29T15:42:31.738Z,97279.91
2023-08-29T15:47:35.642Z,97264.94
2023-08-29T15:52:39.762Z,97293.84
2023-08-29T15:57:45.192Z,97298.31
2023-08-29T16:02:49.386Z,97294.63
2023-08-29T16:07:53.388Z,97296.06
2023-08-29T16:12:58.815Z,97286.94
2023-08-29T16:18:03.607Z,97277.97
2023-08-29T16:23:07.825Z,97274.81
2023-08-29T16:28:13.573Z,97256.88
2023-08-29T16:33:17.483Z,97209.53
2023-08-29T16:38:21.541Z,97194.06
2023-08-29T16:43:27.025Z,97212.75
2023-08-29T16:48:31.180Z,97208.28
2023-08-29T16:53:35.080Z,97214.38
2023-08-29T16:58:40.470Z,97199.16
2023-08-29T17:03:44.396Z,97206.78
2023-08-29T17:08:48.888Z,97225.69
2023-08-29T17:13:54.608Z,97225.31
2023-08-29T17:18:59.210Z,97218.06
2023-08-29T17:24:03.524Z,97194.38
2023-08-29T17:29:09.145Z,97186.59
2023-08-29T17:34:14.324Z,97159.53
2023-08-29T17:39:18.606Z,97144.38
2023-08-29T17:44:24.145Z,97164.41
2023-08-29T17:49:28.038Z,97168.34
2023-08-29T17:54:32.165Z,97166.19
2023-08-29T17:59:37.634Z,97165.38
2023-08-29T18:04:41.899Z,97167.84
2023-08-29T18:10:06.938Z,97167.59
2023-08-29T18:15:13.989Z,97178.41
2023-08-29T18:20:18.167Z,97168.69
2023-08-29T18:25:22.590Z,97164.97
2023-08-29T18:30:27.981Z,97167.34
2023-08-29T18:35:32.227Z,97155.75
2023-08-29T18:40:36.846Z,97136.88
2023-08-29T18:45:42.545Z,97126.16
2023-08-29T18:50:46.447Z,97115.03
2023-08-29T18:55:50.377Z,97129.88
2023-08-29T19:00:56.308Z,97156.06
2023-08-29T19:06:00.611Z,97162.16
2023-08-29T19:11:06.160Z,97152.09
2023-08-29T19:16:11.957Z,97148.41
2023-08-29T19:21:16.694Z,97154.03
2023-08-29T19:26:21.043Z,97159.22
2023-08-29T19:31:26.334Z,97141.25
2023-08-29T19:36:30.991Z,97103.78
2023-08-29T19:41:35.459Z,97100.53
2023-08-29T19:46:40.927Z,97100.53
2023-08-29T19:51:45.019Z,97119.84
2023-08-29T19:56:48.886Z,97109.78
2023-08-29T20:01:54.352Z,97086.94
2023-08-29T20:06:58.405Z,97095.19
2023-08-29T20:12:02.347Z,97107.09
2023-08-29T20:17:08.062Z,97125.28
2023-08-29T20:22:13.282Z,97104.75
2023-08-29T20:27:17.982Z,97130.06
2023-08-29T20:32:24.096Z,97120.50
2023-08-29T20:37:31.725Z,97120.81
2023-08-29T20:42:37.207Z,97142.22
2023-08-29T20:47:43.820Z,97158.19
2023-08-29T20:52:47.711Z,97157.72
2023-08-29T20:57:51.948Z,97139.75
2023-08-29T21:02:57.701Z,97116.78
2023-08-29T21:08:02.031Z,97114.59
2023-08-29T21:13:06.343Z,97087.22
2023-08-29T21:18:12.724Z,97096.22
2023-08-29T21:23:16.675Z,97094.56
2023-08-29T21:28:23.785Z,97101.81
2023-08-29T21:33:29.415Z,97118.03
2023-08-29T21:38:34.618Z,97139.84
2023-08-29T21:43:38.922Z,97144.97
2023-08-29T21:48:44.432Z,97179.78
2023-08-29T21:53:48.594Z,97205.66
2023-08-29T21:58:53.158Z,97217.31
2023-08-29T22:03:58.673Z,97178.66
2023-08-29T22:09:04.084Z,97148.59
2023-08-29T22:14:07.989Z,97138.47
2023-08-29T22:19:13.463Z,97156.72
2023-08-29T22:24:17.852Z,97156.06
2023-08-29T22:29:21.950Z,97141.28
2023-08-29T22:34:27.347Z,97135.69
2023-08-29T22:39:32.264Z,97139.03
2023-08-29T22:44:36.503Z,97131.38
2023-08-29T22:49:41.903Z,97136.66
2023-08-29T22:54:45.955Z,97115.50
2023-08-29T22:59:49.803Z,97115.50
2023-08-29T23:04:55.330Z,97105.13
2023-08-29T23:10:00.337Z,97120.44
2023-08-29T23:15:05.428Z,97111.59
2023-08-29T23:20:12.808Z,97120.28
2023-08-29T23:25:17.579Z,97126.59
2023-08-29T23:30:21.813Z,97121.97
2023-08-29T23:35:27.292Z,97110.28
2023-08-29T23:40:31.912Z,97115.66
2023-08-29T23:45:37.024Z,97114.75
2023-08-29T23:50:42.467Z,97122.44
2023-08-29T23:55:46.389Z,97143.22
